sensor_id;sensor_type;location;lat;lon;timestamp;P1;durP1;ratioP1;P2;durP2;ratioP2
26488;SDS011;14169;43.684;10.484;2023-04-29T00:01:03;4.05;;;2.00;;
26488;SDS011;14169;43.684;10.484;2023-04-29T00:03:29;6.45;;;1.75;;
26488;SDS011;14169;43.684;10.484;2023-04-29T00:05:56;5.93;;;1.77;;
26488;SDS011;14169;43.684;10.484;2023-04-29T00:08:22;4.80;;;2.15;;
26488;SDS011;14169;43.684;10.484;2023-04-29T00:10:48;3.78;;;1.92;;
26488;SDS011;14169;43.684;10.484;2023-04-29T00:13:14;4.68;;;1.88;;
26488;SDS011;14169;43.684;10.484;2023-04-29T00:15:40;5.18;;;2.13;;
26488;SDS011;14169;43.684;10.484;2023-04-29T00:18:05;8.63;;;2.17;;
26488;SDS011;14169;43.684;10.484;2023-04-29T00:20:30;4.93;;;1.55;;
26488;SDS011;14169;43.684;10.484;2023-04-29T00:22:56;3.88;;;1.80;;
26488;SDS011;14169;43.684;10.484;2023-04-29T00:25:22;3.60;;;1.90;;
26488;SDS011;14169;43.684;10.484;2023-04-29T00:27:47;6.25;;;1.55;;
26488;SDS011;14169;43.684;10.484;2023-04-29T00:30:13;5.20;;;1.85;;
26488;SDS011;14169;43.684;10.484;2023-04-29T00:32:39;4.53;;;1.90;;
26488;SDS011;14169;43.684;10.484;2023-04-29T00:35:05;4.82;;;1.50;;
26488;SDS011;14169;43.684;10.484;2023-04-29T00:37:31;3.88;;;1.77;;
26488;SDS011;14169;43.684;10.484;2023-04-29T00:39:56;5.18;;;1.40;;
26488;SDS011;14169;43.684;10.484;2023-04-29T00:42:22;3.75;;;1.38;;
26488;SDS011;14169;43.684;10.484;2023-04-29T00:44:48;4.40;;;1.65;;
26488;SDS011;14169;43.684;10.484;2023-04-29T00:47:13;6.32;;;1.73;;
26488;SDS011;14169;43.684;10.484;2023-04-29T00:49:38;4.93;;;1.60;;
26488;SDS011;14169;43.684;10.484;2023-04-29T00:52:04;3.13;;;1.35;;
26488;SDS011;14169;43.684;10.484;2023-04-29T00:54:32;3.67;;;1.83;;
26488;SDS011;14169;43.684;10.484;2023-04-29T00:56:59;7.00;;;2.10;;
26488;SDS011;14169;43.684;10.484;2023-04-29T00:59:27;5.53;;;2.40;;
26488;SDS011;14169;43.684;10.484;2023-04-29T01:01:57;4.22;;;1.73;;
26488;SDS011;14169;43.684;10.484;2023-04-29T01:04:28;5.80;;;2.00;;
26488;SDS011;14169;43.684;10.484;2023-04-29T01:12:40;8.63;;;2.20;;
26488;SDS011;14169;43.684;10.484;2023-04-29T01:17:47;3.95;;;1.75;;
26488;SDS011;14169;43.684;10.484;2023-04-29T01:20:19;4.85;;;1.75;;
26488;SDS011;14169;43.684;10.484;2023-04-29T01:22:46;8.65;;;2.47;;
26488;SDS011;14169;43.684;10.484;2023-04-29T01:25:12;5.55;;;2.15;;
26488;SDS011;14169;43.684;10.484;2023-04-29T01:38:36;5.03;;;1.80;;
26488;SDS011;14169;43.684;10.484;2023-04-29T01:41:17;3.90;;;2.50;;
26488;SDS011;14169;43.684;10.484;2023-04-29T01:43:51;3.22;;;2.05;;
26488;SDS011;14169;43.684;10.484;2023-04-29T01:46:20;3.10;;;1.80;;
26488;SDS011;14169;43.684;10.484;2023-04-29T01:48:46;6.38;;;2.33;;
26488;SDS011;14169;43.684;10.484;2023-04-29T01:51:11;4.65;;;2.08;;
26488;SDS011;14169;43.684;10.484;2023-04-29T01:53:37;4.35;;;1.90;;
26488;SDS011;14169;43.684;10.484;2023-04-29T01:56:05;5.30;;;2.55;;
26488;SDS011;14169;43.684;10.484;2023-04-29T01:58:31;4.82;;;1.77;;
26488;SDS011;14169;43.684;10.484;2023-04-29T02:00:57;8.20;;;2.40;;
26488;SDS011;14169;43.684;10.484;2023-04-29T02:03:22;5.50;;;2.53;;
26488;SDS011;14169;43.684;10.484;2023-04-29T02:05:47;3.92;;;2.85;;
26488;SDS011;14169;43.684;10.484;2023-04-29T02:08:14;3.47;;;2.33;;
26488;SDS011;14169;43.684;10.484;2023-04-29T02:10:40;5.43;;;2.15;;
26488;SDS011;14169;43.684;10.484;2023-04-29T02:13:06;9.43;;;2.45;;
26488;SDS011;14169;43.684;10.484;2023-04-29T02:15:31;5.40;;;2.60;;
26488;SDS011;14169;43.684;10.484;2023-04-29T02:17:57;4.43;;;2.67;;
26488;SDS011;14169;43.684;10.484;2023-04-29T02:20:22;6.25;;;2.53;;
26488;SDS011;14169;43.684;10.484;2023-04-29T02:22:48;4.97;;;2.10;;
26488;SDS011;14169;43.684;10.484;2023-04-29T02:25:13;6.28;;;2.60;;
26488;SDS011;14169;43.684;10.484;2023-04-29T02:27:39;9.07;;;3.28;;
26488;SDS011;14169;43.684;10.484;2023-04-29T02:30:04;5.55;;;3.40;;
26488;SDS011;14169;43.684;10.484;2023-04-29T02:32:30;5.68;;;2.85;;
26488;SDS011;14169;43.684;10.484;2023-04-29T02:34:56;7.20;;;3.58;;
26488;SDS011;14169;43.684;10.484;2023-04-29T02:37:22;5.30;;;2.38;;
26488;SDS011;14169;43.684;10.484;2023-04-29T02:39:47;4.95;;;2.67;;
26488;SDS011;14169;43.684;10.484;2023-04-29T02:42:12;7.35;;;2.55;;
26488;SDS011;14169;43.684;10.484;2023-04-29T02:44:38;3.80;;;2.30;;
26488;SDS011;14169;43.684;10.484;2023-04-29T02:47:04;5.15;;;3.22;;
26488;SDS011;14169;43.684;10.484;2023-04-29T02:49:29;2.70;;;2.08;;
26488;SDS011;14169;43.684;10.484;2023-04-29T02:51:55;3.58;;;2.63;;
26488;SDS011;14169;43.684;10.484;2023-04-29T02:54:20;3.95;;;2.65;;
26488;SDS011;14169;43.684;10.484;2023-04-29T02:56:45;6.78;;;3.28;;
26488;SDS011;14169;43.684;10.484;2023-04-29T02:59:11;5.03;;;3.20;;
26488;SDS011;14169;43.684;10.484;2023-04-29T03:01:36;4.93;;;2.72;;
26488;SDS011;14169;43.684;10.484;2023-04-29T03:04:02;3.53;;;2.38;;
26488;SDS011;14169;43.684;10.484;2023-04-29T03:06:29;8.15;;;2.90;;
26488;SDS011;14169;43.684;10.484;2023-04-29T03:08:55;6.07;;;3.10;;
26488;SDS011;14169;43.684;10.484;2023-04-29T03:11:20;4.45;;;3.30;;
26488;SDS011;14169;43.684;10.484;2023-04-29T03:13:48;4.20;;;2.70;;
26488;SDS011;14169;43.684;10.484;2023-04-29T03:16:14;5.20;;;3.05;;
26488;SDS011;14169;43.684;10.484;2023-04-29T03:18:41;6.85;;;3.00;;
26488;SDS011;14169;43.684;10.484;2023-04-29T03:21:09;4.60;;;2.90;;
26488;SDS011;14169;43.684;10.484;2023-04-29T03:23:34;4.35;;;2.65;;
26488;SDS011;14169;43.684;10.484;2023-04-29T03:26:00;3.88;;;3.35;;
26488;SDS011;14169;43.684;10.484;2023-04-29T03:28:25;4.28;;;2.63;;
26488;SDS011;14169;43.684;10.484;2023-04-29T03:30:51;5.97;;;3.38;;
26488;SDS011;14169;43.684;10.484;2023-04-29T03:33:16;6.60;;;2.90;;
26488;SDS011;14169;43.684;10.484;2023-04-29T03:35:42;5.70;;;2.63;;
26488;SDS011;14169;43.684;10.484;2023-04-29T03:38:07;5.05;;;2.67;;
26488;SDS011;14169;43.684;10.484;2023-04-29T03:40:33;5.25;;;2.53;;
26488;SDS011;14169;43.684;10.484;2023-04-29T03:42:58;4.20;;;3.13;;
26488;SDS011;14169;43.684;10.484;2023-04-29T03:45:25;4.57;;;2.63;;
26488;SDS011;14169;43.684;10.484;2023-04-29T03:47:50;3.28;;;2.67;;
26488;SDS011;14169;43.684;10.484;2023-04-29T03:50:17;4.45;;;2.65;;
26488;SDS011;14169;43.684;10.484;2023-04-29T03:52:42;4.32;;;2.55;;
26488;SDS011;14169;43.684;10.484;2023-04-29T03:55:08;9.45;;;2.92;;
26488;SDS011;14169;43.684;10.484;2023-04-29T03:57:34;3.90;;;2.58;;
26488;SDS011;14169;43.684;10.484;2023-04-29T03:59:59;4.18;;;2.40;;
26488;SDS011;14169;43.684;10.484;2023-04-29T04:02:25;4.13;;;2.22;;
26488;SDS011;14169;43.684;10.484;2023-04-29T04:04:50;3.42;;;2.60;;
26488;SDS011;14169;43.684;10.484;2023-04-29T04:07:16;5.60;;;2.65;;
26488;SDS011;14169;43.684;10.484;2023-04-29T04:09:41;3.92;;;2.97;;
26488;SDS011;14169;43.684;10.484;2023-04-29T04:12:07;5.18;;;2.78;;
26488;SDS011;14169;43.684;10.484;2023-04-29T04:14:32;4.53;;;1.98;;
26488;SDS011;14169;43.684;10.484;2023-04-29T04:16:58;4.65;;;2.30;;
26488;SDS011;14169;43.684;10.484;2023-04-29T04:19:23;6.32;;;2.05;;
26488;SDS011;14169;43.684;10.484;2023-04-29T04:21:51;4.68;;;2.67;;
26488;SDS011;14169;43.684;10.484;2023-04-29T04:24:16;4.30;;;2.17;;
26488;SDS011;14169;43.684;10.484;2023-04-29T04:26:41;5.78;;;2.17;;
26488;SDS011;14169;43.684;10.484;2023-04-29T04:29:07;3.15;;;1.70;;
26488;SDS011;14169;43.684;10.484;2023-04-29T04:31:32;3.60;;;2.00;;
26488;SDS011;14169;43.684;10.484;2023-04-29T04:33:58;4.35;;;1.92;;
26488;SDS011;14169;43.684;10.484;2023-04-29T04:36:23;4.03;;;1.90;;
26488;SDS011;14169;43.684;10.484;2023-04-29T04:38:49;3.88;;;2.15;;
26488;SDS011;14169;43.684;10.484;2023-04-29T04:41:15;5.05;;;2.47;;
26488;SDS011;14169;43.684;10.484;2023-04-29T04:43:40;5.05;;;2.67;;
26488;SDS011;14169;43.684;10.484;2023-04-29T04:46:10;4.53;;;2.13;;
26488;SDS011;14169;43.684;10.484;2023-04-29T04:48:36;3.13;;;2.00;;
26488;SDS011;14169;43.684;10.484;2023-04-29T04:51:11;2.70;;;1.83;;
26488;SDS011;14169;43.684;10.484;2023-04-29T04:53:38;5.43;;;2.38;;
26488;SDS011;14169;43.684;10.484;2023-04-29T04:56:04;4.97;;;2.10;;
26488;SDS011;14169;43.684;10.484;2023-04-29T04:58:30;6.00;;;2.33;;
26488;SDS011;14169;43.684;10.484;2023-04-29T05:00:57;10.32;;;2.67;;
26488;SDS011;14169;43.684;10.484;2023-04-29T05:03:22;3.05;;;2.33;;
26488;SDS011;14169;43.684;10.484;2023-04-29T05:05:54;6.38;;;2.13;;
26488;SDS011;14169;43.684;10.484;2023-04-29T05:08:20;6.40;;;2.20;;
26488;SDS011;14169;43.684;10.484;2023-04-29T05:10:46;3.63;;;1.73;;
26488;SDS011;14169;43.684;10.484;2023-04-29T05:13:11;3.58;;;1.80;;
26488;SDS011;14169;43.684;10.484;2023-04-29T05:15:36;3.65;;;1.95;;
26488;SDS011;14169;43.684;10.484;2023-04-29T05:18:02;3.20;;;2.53;;
26488;SDS011;14169;43.684;10.484;2023-04-29T05:20:27;4.57;;;2.63;;
26488;SDS011;14169;43.684;10.484;2023-04-29T05:22:53;3.58;;;2.22;;
26488;SDS011;14169;43.684;10.484;2023-04-29T05:25:18;4.68;;;2.75;;
26488;SDS011;14169;43.684;10.484;2023-04-29T05:27:43;5.18;;;3.53;;
26488;SDS011;14169;43.684;10.484;2023-04-29T05:30:09;7.47;;;3.67;;
26488;SDS011;14169;43.684;10.484;2023-04-29T05:32:35;8.80;;;4.72;;
26488;SDS011;14169;43.684;10.484;2023-04-29T05:35:00;5.97;;;4.78;;
26488;SDS011;14169;43.684;10.484;2023-04-29T05:37:26;9.02;;;8.07;;
26488;SDS011;14169;43.684;10.484;2023-04-29T05:39:55;14.65;;;11.25;;
26488;SDS011;14169;43.684;10.484;2023-04-29T05:42:20;18.73;;;16.05;;
26488;SDS011;14169;43.684;10.484;2023-04-29T05:44:46;22.75;;;17.45;;
26488;SDS011;14169;43.684;10.484;2023-04-29T05:47:11;24.13;;;18.50;;
26488;SDS011;14169;43.684;10.484;2023-04-29T05:49:38;16.05;;;13.05;;
26488;SDS011;14169;43.684;10.484;2023-04-29T05:52:03;11.60;;;9.65;;
26488;SDS011;14169;43.684;10.484;2023-04-29T05:54:30;11.13;;;8.73;;
26488;SDS011;14169;43.684;10.484;2023-04-29T05:56:59;9.30;;;7.05;;
26488;SDS011;14169;43.684;10.484;2023-04-29T05:59:28;7.18;;;5.75;;
26488;SDS011;14169;43.684;10.484;2023-04-29T06:01:55;10.48;;;5.05;;
26488;SDS011;14169;43.684;10.484;2023-04-29T06:04:21;6.18;;;4.68;;
26488;SDS011;14169;43.684;10.484;2023-04-29T06:06:46;7.60;;;4.63;;
26488;SDS011;14169;43.684;10.484;2023-04-29T06:09:12;5.45;;;3.63;;
26488;SDS011;14169;43.684;10.484;2023-04-29T06:11:41;4.35;;;3.40;;
26488;SDS011;14169;43.684;10.484;2023-04-29T06:14:08;4.60;;;3.60;;
26488;SDS011;14169;43.684;10.484;2023-04-29T06:16:33;4.25;;;2.22;;
26488;SDS011;14169;43.684;10.484;2023-04-29T06:18:59;6.60;;;2.35;;
26488;SDS011;14169;43.684;10.484;2023-04-29T06:21:24;3.70;;;2.53;;
26488;SDS011;14169;43.684;10.484;2023-04-29T06:23:51;6.88;;;3.00;;
26488;SDS011;14169;43.684;10.484;2023-04-29T06:26:17;6.20;;;2.45;;
26488;SDS011;14169;43.684;10.484;2023-04-29T06:28:43;5.40;;;2.50;;
26488;SDS011;14169;43.684;10.484;2023-04-29T06:31:08;6.35;;;2.42;;
26488;SDS011;14169;43.684;10.484;2023-04-29T06:33:33;8.25;;;3.00;;
26488;SDS011;14169;43.684;10.484;2023-04-29T06:35:59;4.25;;;2.78;;
26488;SDS011;14169;43.684;10.484;2023-04-29T06:38:24;4.25;;;2.30;;
26488;SDS011;14169;43.684;10.484;2023-04-29T06:40:50;7.22;;;3.10;;
26488;SDS011;14169;43.684;10.484;2023-04-29T06:43:15;4.32;;;2.05;;
26488;SDS011;14169;43.684;10.484;2023-04-29T06:45:40;4.88;;;2.90;;
26488;SDS011;14169;43.684;10.484;2023-04-29T06:48:06;6.28;;;3.08;;
26488;SDS011;14169;43.684;10.484;2023-04-29T06:50:31;5.88;;;2.60;;
26488;SDS011;14169;43.684;10.484;2023-04-29T06:52:57;5.10;;;3.17;;
26488;SDS011;14169;43.684;10.484;2023-04-29T06:55:23;10.85;;;6.05;;
26488;SDS011;14169;43.684;10.484;2023-04-29T06:57:48;11.15;;;6.00;;
26488;SDS011;14169;43.684;10.484;2023-04-29T07:00:14;10.27;;;4.07;;
26488;SDS011;14169;43.684;10.484;2023-04-29T07:02:40;12.27;;;5.97;;
26488;SDS011;14169;43.684;10.484;2023-04-29T07:05:05;6.60;;;3.25;;
26488;SDS011;14169;43.684;10.484;2023-04-29T07:07:31;4.00;;;2.72;;
26488;SDS011;14169;43.684;10.484;2023-04-29T07:09:57;7.43;;;2.30;;
26488;SDS011;14169;43.684;10.484;2023-04-29T07:12:22;2.92;;;1.50;;
26488;SDS011;14169;43.684;10.484;2023-04-29T07:14:47;5.22;;;1.88;;
26488;SDS011;14169;43.684;10.484;2023-04-29T07:17:13;5.75;;;2.10;;
26488;SDS011;14169;43.684;10.484;2023-04-29T07:19:38;2.70;;;1.17;;
26488;SDS011;14169;43.684;10.484;2023-04-29T07:22:04;5.13;;;1.85;;
26488;SDS011;14169;43.684;10.484;2023-04-29T07:24:29;12.35;;;2.25;;
26488;SDS011;14169;43.684;10.484;2023-04-29T07:26:54;7.03;;;1.50;;
26488;SDS011;14169;43.684;10.484;2023-04-29T07:29:20;4.70;;;1.60;;
26488;SDS011;14169;43.684;10.484;2023-04-29T07:31:45;8.48;;;2.17;;
26488;SDS011;14169;43.684;10.484;2023-04-29T07:34:11;3.50;;;1.92;;
26488;SDS011;14169;43.684;10.484;2023-04-29T07:36:36;2.95;;;1.80;;
26488;SDS011;14169;43.684;10.484;2023-04-29T07:39:02;4.18;;;1.70;;
26488;SDS011;14169;43.684;10.484;2023-04-29T07:41:27;5.32;;;2.33;;
26488;SDS011;14169;43.684;10.484;2023-04-29T07:43:53;5.97;;;2.95;;
26488;SDS011;14169;43.684;10.484;2023-04-29T07:46:18;4.13;;;2.10;;
26488;SDS011;14169;43.684;10.484;2023-04-29T07:48:43;10.40;;;2.40;;
26488;SDS011;14169;43.684;10.484;2023-04-29T07:51:13;5.93;;;1.70;;
26488;SDS011;14169;43.684;10.484;2023-04-29T07:53:39;4.78;;;1.85;;
26488;SDS011;14169;43.684;10.484;2023-04-29T07:56:05;7.10;;;2.00;;
26488;SDS011;14169;43.684;10.484;2023-04-29T07:58:31;7.43;;;4.63;;
26488;SDS011;14169;43.684;10.484;2023-04-29T08:01:03;14.15;;;8.73;;
26488;SDS011;14169;43.684;10.484;2023-04-29T08:03:29;24.25;;;12.13;;
26488;SDS011;14169;43.684;10.484;2023-04-29T08:05:59;18.60;;;7.15;;
26488;SDS011;14169;43.684;10.484;2023-04-29T08:08:25;7.93;;;4.72;;
26488;SDS011;14169;43.684;10.484;2023-04-29T08:10:50;8.00;;;4.70;;
26488;SDS011;14169;43.684;10.484;2023-04-29T08:13:16;3.58;;;1.80;;
26488;SDS011;14169;43.684;10.484;2023-04-29T08:15:41;12.55;;;4.90;;
26488;SDS011;14169;43.684;10.484;2023-04-29T08:18:07;7.28;;;3.13;;
26488;SDS011;14169;43.684;10.484;2023-04-29T08:20:32;5.40;;;2.13;;
26488;SDS011;14169;43.684;10.484;2023-04-29T08:22:58;3.78;;;1.92;;
26488;SDS011;14169;43.684;10.484;2023-04-29T08:25:24;5.00;;;1.88;;
26488;SDS011;14169;43.684;10.484;2023-04-29T08:27:51;7.13;;;2.08;;
26488;SDS011;14169;43.684;10.484;2023-04-29T08:30:16;3.88;;;1.30;;
26488;SDS011;14169;43.684;10.484;2023-04-29T08:32:42;3.78;;;1.23;;
26488;SDS011;14169;43.684;10.484;2023-04-29T08:35:07;4.13;;;1.38;;
26488;SDS011;14169;43.684;10.484;2023-04-29T08:37:33;4.28;;;1.42;;
26488;SDS011;14169;43.684;10.484;2023-04-29T08:39:58;4.15;;;1.42;;
26488;SDS011;14169;43.684;10.484;2023-04-29T08:42:31;3.33;;;1.30;;
26488;SDS011;14169;43.684;10.484;2023-04-29T08:44:57;4.03;;;1.40;;
26488;SDS011;14169;43.684;10.484;2023-04-29T08:47:24;2.53;;;1.10;;
26488;SDS011;14169;43.684;10.484;2023-04-29T08:49:52;3.03;;;1.48;;
26488;SDS011;14169;43.684;10.484;2023-04-29T08:52:18;3.83;;;1.77;;
26488;SDS011;14169;43.684;10.484;2023-04-29T08:54:43;2.78;;;0.90;;
26488;SDS011;14169;43.684;10.484;2023-04-29T08:57:09;4.45;;;1.20;;
26488;SDS011;14169;43.684;10.484;2023-04-29T08:59:35;2.47;;;1.20;;
26488;SDS011;14169;43.684;10.484;2023-04-29T09:02:01;4.40;;;1.65;;
26488;SDS011;14169;43.684;10.484;2023-04-29T09:04:29;5.07;;;1.35;;
26488;SDS011;14169;43.684;10.484;2023-04-29T09:07:05;2.05;;;1.20;;
26488;SDS011;14169;43.684;10.484;2023-04-29T09:09:31;4.93;;;1.38;;
26488;SDS011;14169;43.684;10.484;2023-04-29T09:11:57;3.15;;;1.30;;
26488;SDS011;14169;43.684;10.484;2023-04-29T09:14:23;4.78;;;1.98;;
26488;SDS011;14169;43.684;10.484;2023-04-29T09:16:49;3.42;;;1.10;;
26488;SDS011;14169;43.684;10.484;2023-04-29T09:19:30;3.85;;;1.20;;
26488;SDS011;14169;43.684;10.484;2023-04-29T09:24:26;1.88;;;1.00;;
26488;SDS011;14169;43.684;10.484;2023-04-29T09:26:53;2.83;;;0.98;;
26488;SDS011;14169;43.684;10.484;2023-04-29T09:29:19;3.25;;;1.35;;
26488;SDS011;14169;43.684;10.484;2023-04-29T09:31:45;2.15;;;1.40;;
26488;SDS011;14169;43.684;10.484;2023-04-29T09:34:11;2.78;;;1.20;;
26488;SDS011;14169;43.684;10.484;2023-04-29T09:36:49;4.75;;;1.30;;
26488;SDS011;14169;43.684;10.484;2023-04-29T09:44:16;2.42;;;1.13;;
26488;SDS011;14169;43.684;10.484;2023-04-29T09:46:42;5.93;;;1.73;;
26488;SDS011;14169;43.684;10.484;2023-04-29T09:49:21;3.55;;;1.50;;
26488;SDS011;14169;43.684;10.484;2023-04-29T09:51:51;3.17;;;1.10;;
26488;SDS011;14169;43.684;10.484;2023-04-29T09:54:21;1.95;;;1.02;;
26488;SDS011;14169;43.684;10.484;2023-04-29T09:56:48;2.83;;;1.05;;
26488;SDS011;14169;43.684;10.484;2023-04-29T09:59:15;2.83;;;1.10;;
26488;SDS011;14169;43.684;10.484;2023-04-29T10:01:41;2.40;;;1.25;;
26488;SDS011;14169;43.684;10.484;2023-04-29T10:04:07;5.05;;;1.65;;
26488;SDS011;14169;43.684;10.484;2023-04-29T10:06:37;3.13;;;1.55;;
26488;SDS011;14169;43.684;10.484;2023-04-29T10:09:05;3.88;;;1.75;;
26488;SDS011;14169;43.684;10.484;2023-04-29T10:11:32;3.17;;;1.55;;
26488;SDS011;14169;43.684;10.484;2023-04-29T10:13:58;4.78;;;1.83;;
26488;SDS011;14169;43.684;10.484;2023-04-29T10:16:28;5.57;;;1.90;;
26488;SDS011;14169;43.684;10.484;2023-04-29T10:18:55;3.07;;;1.63;;
26488;SDS011;14169;43.684;10.484;2023-04-29T10:21:28;3.80;;;2.13;;
26488;SDS011;14169;43.684;10.484;2023-04-29T10:23:58;3.30;;;1.75;;
26488;SDS011;14169;43.684;10.484;2023-04-29T10:26:26;3.00;;;1.67;;
26488;SDS011;14169;43.684;10.484;2023-04-29T10:28:56;3.38;;;1.88;;
26488;SDS011;14169;43.684;10.484;2023-04-29T10:31:27;5.77;;;3.13;;
26488;SDS011;14169;43.684;10.484;2023-04-29T10:33:54;5.20;;;2.78;;
26488;SDS011;14169;43.684;10.484;2023-04-29T10:36:21;4.47;;;2.10;;
26488;SDS011;14169;43.684;10.484;2023-04-29T10:38:50;4.25;;;2.63;;
26488;SDS011;14169;43.684;10.484;2023-04-29T10:41:21;5.70;;;2.45;;
26488;SDS011;14169;43.684;10.484;2023-04-29T10:43:53;2.83;;;1.73;;
26488;SDS011;14169;43.684;10.484;2023-04-29T10:46:20;4.63;;;1.98;;
26488;SDS011;14169;43.684;10.484;2023-04-29T10:48:54;5.20;;;1.80;;
26488;SDS011;14169;43.684;10.484;2023-04-29T10:56:39;8.20;;;3.42;;
26488;SDS011;14169;43.684;10.484;2023-04-29T10:59:11;5.18;;;3.20;;
26488;SDS011;14169;43.684;10.484;2023-04-29T11:04:17;4.13;;;2.90;;
26488;SDS011;14169;43.684;10.484;2023-04-29T11:07:01;6.65;;;3.40;;
26488;SDS011;14169;43.684;10.484;2023-04-29T11:09:30;7.22;;;2.60;;
26488;SDS011;14169;43.684;10.484;2023-04-29T11:12:01;3.53;;;1.63;;
26488;SDS011;14169;43.684;10.484;2023-04-29T11:17:15;3.30;;;2.22;;
26488;SDS011;14169;43.684;10.484;2023-04-29T11:19:43;6.00;;;2.38;;
26488;SDS011;14169;43.684;10.484;2023-04-29T11:27:20;3.58;;;2.00;;
26488;SDS011;14169;43.684;10.484;2023-04-29T11:29:49;3.50;;;1.77;;
26488;SDS011;14169;43.684;10.484;2023-04-29T11:32:28;3.80;;;1.88;;
26488;SDS011;14169;43.684;10.484;2023-04-29T11:34:56;4.68;;;1.95;;
26488;SDS011;14169;43.684;10.484;2023-04-29T11:37:31;2.92;;;2.03;;
26488;SDS011;14169;43.684;10.484;2023-04-29T11:39:59;4.15;;;1.50;;
26488;SDS011;14169;43.684;10.484;2023-04-29T11:42:25;4.10;;;1.60;;
26488;SDS011;14169;43.684;10.484;2023-04-29T11:44:55;4.45;;;2.00;;
26488;SDS011;14169;43.684;10.484;2023-04-29T11:47:25;3.45;;;2.13;;
26488;SDS011;14169;43.684;10.484;2023-04-29T11:49:51;2.42;;;1.77;;
26488;SDS011;14169;43.684;10.484;2023-04-29T11:52:17;3.90;;;1.92;;
26488;SDS011;14169;43.684;10.484;2023-04-29T11:54:42;5.00;;;2.28;;
26488;SDS011;14169;43.684;10.484;2023-04-29T11:57:09;3.90;;;1.85;;
26488;SDS011;14169;43.684;10.484;2023-04-29T11:59:34;3.20;;;2.08;;
26488;SDS011;14169;43.684;10.484;2023-04-29T12:02:00;4.95;;;2.00;;
26488;SDS011;14169;43.684;10.484;2023-04-29T12:04:25;4.60;;;2.22;;
26488;SDS011;14169;43.684;10.484;2023-04-29T12:06:51;3.42;;;2.00;;
26488;SDS011;14169;43.684;10.484;2023-04-29T12:09:17;2.70;;;1.73;;
26488;SDS011;14169;43.684;10.484;2023-04-29T12:11:43;4.68;;;2.15;;
26488;SDS011;14169;43.684;10.484;2023-04-29T12:14:11;3.17;;;2.10;;
26488;SDS011;14169;43.684;10.484;2023-04-29T12:16:37;3.03;;;2.03;;
26488;SDS011;14169;43.684;10.484;2023-04-29T12:19:03;3.15;;;1.90;;
26488;SDS011;14169;43.684;10.484;2023-04-29T12:21:29;6.68;;;2.50;;
26488;SDS011;14169;43.684;10.484;2023-04-29T12:23:57;3.78;;;2.10;;
26488;SDS011;14169;43.684;10.484;2023-04-29T12:26:26;3.00;;;1.80;;
26488;SDS011;14169;43.684;10.484;2023-04-29T12:28:52;3.55;;;2.42;;
26488;SDS011;14169;43.684;10.484;2023-04-29T12:31:19;3.03;;;1.80;;
26488;SDS011;14169;43.684;10.484;2023-04-29T12:33:45;5.97;;;2.00;;
26488;SDS011;14169;43.684;10.484;2023-04-29T12:36:16;3.72;;;2.03;;
26488;SDS011;14169;43.684;10.484;2023-04-29T12:38:43;2.58;;;1.98;;
26488;SDS011;14169;43.684;10.484;2023-04-29T12:41:09;3.00;;;1.73;;
26488;SDS011;14169;43.684;10.484;2023-04-29T12:43:34;5.30;;;2.38;;
26488;SDS011;14169;43.684;10.484;2023-04-29T12:46:01;4.35;;;2.38;;
26488;SDS011;14169;43.684;10.484;2023-04-29T12:48:30;3.88;;;2.38;;
26488;SDS011;14169;43.684;10.484;2023-04-29T12:51:01;3.83;;;1.90;;
26488;SDS011;14169;43.684;10.484;2023-04-29T12:53:29;4.30;;;2.03;;
26488;SDS011;14169;43.684;10.484;2023-04-29T12:55:55;2.92;;;2.05;;
26488;SDS011;14169;43.684;10.484;2023-04-29T12:58:21;6.22;;;2.50;;
26488;SDS011;14169;43.684;10.484;2023-04-29T13:00:47;3.45;;;1.90;;
26488;SDS011;14169;43.684;10.484;2023-04-29T13:03:13;5.60;;;2.33;;
26488;SDS011;14169;43.684;10.484;2023-04-29T13:05:39;3.42;;;1.95;;
26488;SDS011;14169;43.684;10.484;2023-04-29T13:08:05;4.38;;;2.08;;
26488;SDS011;14169;43.684;10.484;2023-04-29T13:10:30;3.70;;;1.90;;
26488;SDS011;14169;43.684;10.484;2023-04-29T13:12:57;3.72;;;2.13;;
26488;SDS011;14169;43.684;10.484;2023-04-29T13:15:22;3.75;;;1.60;;
26488;SDS011;14169;43.684;10.484;2023-04-29T13:17:48;4.00;;;1.90;;
26488;SDS011;14169;43.684;10.484;2023-04-29T13:20:13;9.13;;;1.85;;
26488;SDS011;14169;43.684;10.484;2023-04-29T13:22:39;3.53;;;2.20;;
26488;SDS011;14169;43.684;10.484;2023-04-29T13:25:05;3.20;;;1.80;;
26488;SDS011;14169;43.684;10.484;2023-04-29T13:27:31;2.92;;;1.95;;
26488;SDS011;14169;43.684;10.484;2023-04-29T13:29:56;3.00;;;1.77;;
26488;SDS011;14169;43.684;10.484;2023-04-29T13:32:22;2.70;;;1.90;;
26488;SDS011;14169;43.684;10.484;2023-04-29T13:34:51;4.35;;;2.20;;
26488;SDS011;14169;43.684;10.484;2023-04-29T13:37:16;4.93;;;2.15;;
26488;SDS011;14169;43.684;10.484;2023-04-29T13:39:42;3.63;;;2.50;;
26488;SDS011;14169;43.684;10.484;2023-04-29T13:42:07;4.18;;;2.30;;
26488;SDS011;14169;43.684;10.484;2023-04-29T13:44:34;2.88;;;1.67;;
26488;SDS011;14169;43.684;10.484;2023-04-29T13:47:00;2.15;;;1.70;;
26488;SDS011;14169;43.684;10.484;2023-04-29T13:49:25;5.75;;;2.28;;
26488;SDS011;14169;43.684;10.484;2023-04-29T13:51:51;2.75;;;2.13;;
26488;SDS011;14169;43.684;10.484;2023-04-29T13:54:16;5.00;;;2.10;;
26488;SDS011;14169;43.684;10.484;2023-04-29T13:56:44;4.72;;;2.50;;
26488;SDS011;14169;43.684;10.484;2023-04-29T13:59:10;3.20;;;2.10;;
26488;SDS011;14169;43.684;10.484;2023-04-29T14:01:37;3.92;;;1.92;;
26488;SDS011;14169;43.684;10.484;2023-04-29T14:04:02;4.10;;;1.55;;
26488;SDS011;14169;43.684;10.484;2023-04-29T14:06:28;7.10;;;1.95;;
26488;SDS011;14169;43.684;10.484;2023-04-29T14:08:54;3.03;;;1.50;;
26488;SDS011;14169;43.684;10.484;2023-04-29T14:11:19;4.90;;;1.92;;
26488;SDS011;14169;43.684;10.484;2023-04-29T14:13:45;6.07;;;1.60;;
26488;SDS011;14169;43.684;10.484;2023-04-29T14:16:10;3.08;;;1.70;;
26488;SDS011;14169;43.684;10.484;2023-04-29T14:18:36;6.97;;;2.15;;
26488;SDS011;14169;43.684;10.484;2023-04-29T14:21:01;4.05;;;1.60;;
26488;SDS011;14169;43.684;10.484;2023-04-29T14:23:27;4.45;;;1.77;;
26488;SDS011;14169;43.684;10.484;2023-04-29T14:25:52;5.28;;;3.88;;
26488;SDS011;14169;43.684;10.484;2023-04-29T14:28:18;4.85;;;3.28;;
26488;SDS011;14169;43.684;10.484;2023-04-29T14:30:43;5.13;;;2.72;;
26488;SDS011;14169;43.684;10.484;2023-04-29T14:33:08;4.47;;;2.08;;
26488;SDS011;14169;43.684;10.484;2023-04-29T14:35:34;2.38;;;1.52;;
26488;SDS011;14169;43.684;10.484;2023-04-29T14:37:59;3.60;;;1.40;;
26488;SDS011;14169;43.684;10.484;2023-04-29T14:40:25;3.92;;;1.77;;
26488;SDS011;14169;43.684;10.484;2023-04-29T14:42:50;4.18;;;1.90;;
26488;SDS011;14169;43.684;10.484;2023-04-29T14:45:16;5.00;;;1.55;;
26488;SDS011;14169;43.684;10.484;2023-04-29T14:47:41;4.45;;;2.42;;
26488;SDS011;14169;43.684;10.484;2023-04-29T14:50:07;2.83;;;1.60;;
26488;SDS011;14169;43.684;10.484;2023-04-29T14:52:32;3.80;;;1.88;;
26488;SDS011;14169;43.684;10.484;2023-04-29T14:54:58;4.47;;;1.90;;
26488;SDS011;14169;43.684;10.484;2023-04-29T14:57:23;3.65;;;1.88;;
26488;SDS011;14169;43.684;10.484;2023-04-29T14:59:49;3.45;;;1.75;;
26488;SDS011;14169;43.684;10.484;2023-04-29T15:02:14;4.38;;;2.10;;
26488;SDS011;14169;43.684;10.484;2023-04-29T15:04:39;4.18;;;2.15;;
26488;SDS011;14169;43.684;10.484;2023-04-29T15:07:09;3.00;;;1.83;;
26488;SDS011;14169;43.684;10.484;2023-04-29T15:09:36;5.80;;;1.75;;
26488;SDS011;14169;43.684;10.484;2023-04-29T15:12:01;18.38;;;2.40;;